createdAt,value
2017-10-17T00:00:57.951Z,4.57
2017-10-17T00:03:25.476Z,4.90
2017-10-17T00:05:52.984Z,6.45
2017-10-17T00:08:20.524Z,5.68
2017-10-17T00:10:48.033Z,5.87
2017-10-17T00:13:15.560Z,5.68
2017-10-17T00:15:43.074Z,5.30
2017-10-17T00:18:10.591Z,5.62
2017-10-17T00:20:38.095Z,5.07
2017-10-17T00:23:05.619Z,5.05
2017-10-17T00:25:33.142Z,5.20
2017-10-17T00:28:01.459Z,4.85
2017-10-17T00:30:32.745Z,5.62
2017-10-17T00:33:05.939Z,5.75
2017-10-17T00:38:37.447Z,5.70
2017-10-17T00:41:04.984Z,5.82
2017-10-17T00:43:32.539Z,5.47
2017-10-17T00:46:00.855Z,5.95
2017-10-17T00:48:28.475Z,5.32
2017-10-17T00:50:56.034Z,5.28
2017-10-17T00:53:23.664Z,5.40
2017-10-17T00:55:51.380Z,5.40
2017-10-17T00:58:19.799Z,5.20
2017-10-17T01:00:47.341Z,5.85
2017-10-17T01:03:15.633Z,5.10
2017-10-17T01:05:46.763Z,6.37
2017-10-17T01:08:14.289Z,6.37
2017-10-17T01:10:41.846Z,6.68
2017-10-17T01:13:09.429Z,6.68
2017-10-17T01:15:37.793Z,5.65
2017-10-17T01:18:05.325Z,6.15
2017-10-17T01:20:33.625Z,6.45
2017-10-17T01:23:08.963Z,5.70
2017-10-17T01:25:36.556Z,6.05
2017-10-17T01:28:20.535Z,6.00
2017-10-17T01:30:48.116Z,5.75
2017-10-17T01:33:15.673Z,5.70
2017-10-17T01:35:43.275Z,6.65
2017-10-17T01:38:19.261Z,6.75
2017-10-17T01:40:46.869Z,5.80
2017-10-17T01:43:30.969Z,5.45
2017-10-17T01:45:58.555Z,6.40
2017-10-17T01:48:34.679Z,6.53
2017-10-17T01:51:06.521Z,5.25
2017-10-17T01:53:44.375Z,5.25
2017-10-17T01:56:14.654Z,6.20
2017-10-17T01:58:42.235Z,5.65
2017-10-17T02:01:10.612Z,5.93
2017-10-17T02:03:38.937Z,6.10
2017-10-17T02:06:06.487Z,5.93
2017-10-17T02:08:34.049Z,5.82
2017-10-17T02:11:22.120Z,5.37
2017-10-17T02:13:49.682Z,6.05
2017-10-17T02:16:17.217Z,5.75
2017-10-17T02:18:47.322Z,5.37
2017-10-17T02:21:20.422Z,4.97
2017-10-17T02:23:48.050Z,5.80
2017-10-17T02:26:18.131Z,6.15
2017-10-17T02:31:45.267Z,5.25
2017-10-17T02:34:28.455Z,6.53
2017-10-17T02:36:55.968Z,5.93
2017-10-17T02:39:23.492Z,5.97
2017-10-17T02:41:51.000Z,6.10
2017-10-17T02:44:19.315Z,5.40
2017-10-17T02:46:47.606Z,5.00
2017-10-17T02:49:18.427Z,4.80
2017-10-17T02:51:45.960Z,5.70
2017-10-17T02:54:14.228Z,5.70
2017-10-17T02:56:41.750Z,5.78
2017-10-17T02:59:11.739Z,5.85
2017-10-17T03:01:44.705Z,5.62
2017-10-17T03:04:12.982Z,6.15
2017-10-17T03:06:41.259Z,6.03
2017-10-17T03:09:09.541Z,6.00
2017-10-17T03:11:37.818Z,5.60
2017-10-17T03:14:15.978Z,5.87
2017-10-17T03:16:43.503Z,4.85
2017-10-17T03:19:11.011Z,5.60
2017-10-17T03:21:56.210Z,5.80
2017-10-17T03:24:27.332Z,5.00
2017-10-17T03:26:54.844Z,4.75
2017-10-17T03:29:22.340Z,5.72
2017-10-17T03:31:49.867Z,4.85
2017-10-17T03:34:22.139Z,4.53
2017-10-17T03:37:08.268Z,4.70
2017-10-17T03:39:48.510Z,3.97
2017-10-17T03:42:16.026Z,5.62
2017-10-17T03:44:44.265Z,5.50
2017-10-17T03:47:13.356Z,4.57
2017-10-17T03:49:43.730Z,4.85
2017-10-17T03:52:17.132Z,4.80
2017-10-17T03:54:45.506Z,4.53
2017-10-17T03:57:16.627Z,4.82
2017-10-17T04:00:02.511Z,5.15
2017-10-17T04:02:30.814Z,4.90
2017-10-17T04:08:13.599Z,6.53
2017-10-17T04:10:48.907Z,4.70
2017-10-17T04:16:23.169Z,4.45
2017-10-17T04:19:06.268Z,4.22
2017-10-17T04:21:35.248Z,4.65
2017-10-17T04:24:09.386Z,4.37
2017-10-17T04:26:36.907Z,4.00
2017-10-17T04:29:06.186Z,5.30
2017-10-17T04:31:39.209Z,4.62
2017-10-17T04:34:12.656Z,4.70
2017-10-17T04:36:51.607Z,3.92
2017-10-17T04:39:19.161Z,4.60
2017-10-17T04:45:16.023Z,4.70
2017-10-17T04:50:52.104Z,4.65
2017-10-17T04:53:27.111Z,5.00
2017-10-17T04:56:13.385Z,5.80
2017-10-17T04:58:42.612Z,5.25
2017-10-17T05:01:10.139Z,5.18
2017-10-17T05:03:40.396Z,5.18
2017-10-17T05:06:11.776Z,5.30
2017-10-17T05:08:59.170Z,4.32
2017-10-17T05:11:26.678Z,5.78
2017-10-17T05:14:10.346Z,5.22
2017-10-17T05:19:54.952Z,5.18
2017-10-17T05:22:25.048Z,5.12
2017-10-17T05:24:55.940Z,4.90
2017-10-17T05:30:58.215Z,5.07
2017-10-17T05:34:00.167Z,5.12
2017-10-17T05:36:27.671Z,4.75
2017-10-17T05:38:55.201Z,4.65
2017-10-17T05:41:22.735Z,5.35
2017-10-17T05:46:47.733Z,5.68
2017-10-17T05:49:19.772Z,6.22
2017-10-17T05:51:48.057Z,5.03
2017-10-17T05:54:15.593Z,5.18
2017-10-17T05:56:43.115Z,5.72
2017-10-17T05:59:10.655Z,4.93
2017-10-17T06:01:38.942Z,4.62
2017-10-17T06:04:06.496Z,5.60
2017-10-17T06:06:34.018Z,5.57
2017-10-17T06:09:02.329Z,5.85
2017-10-17T06:11:29.872Z,5.32
2017-10-17T06:13:58.164Z,5.35
2017-10-17T06:16:25.682Z,5.05
2017-10-17T06:18:53.209Z,5.60
2017-10-17T06:21:20.765Z,5.62
2017-10-17T06:23:48.285Z,5.03
2017-10-17T06:26:16.593Z,4.90
2017-10-17T06:28:44.104Z,5.75
2017-10-17T06:31:11.652Z,5.37
2017-10-17T06:33:39.173Z,5.53
2017-10-17T06:36:06.725Z,5.05
2017-10-17T06:38:34.277Z,5.68
2017-10-17T06:41:01.872Z,5.93
2017-10-17T06:43:29.405Z,5.75
2017-10-17T06:45:56.968Z,6.70
2017-10-17T06:48:24.513Z,5.85
2017-10-17T06:50:52.076Z,5.60
2017-10-17T06:53:19.613Z,5.70
2017-10-17T06:55:47.930Z,5.60
2017-10-17T06:58:15.490Z,6.40
2017-10-17T07:00:43.038Z,5.97
2017-10-17T07:03:11.361Z,5.75
2017-10-17T07:05:38.920Z,5.47
2017-10-17T07:08:06.473Z,6.22
2017-10-17T07:10:33.998Z,5.55
2017-10-17T07:13:01.566Z,6.37
2017-10-17T07:15:29.107Z,6.12
2017-10-17T07:17:57.437Z,6.25
2017-10-17T07:20:24.999Z,5.82
2017-10-17T07:22:52.556Z,5.80
2017-10-17T07:25:20.081Z,5.80
2017-10-17T07:27:47.634Z,5.65
2017-10-17T07:30:15.173Z,5.95
2017-10-17T07:32:43.511Z,5.40
2017-10-17T07:35:11.041Z,5.43
2017-10-17T07:37:38.619Z,6.25
2017-10-17T07:40:06.159Z,6.65
2017-10-17T07:42:33.694Z,6.18
2017-10-17T07:45:01.291Z,6.25
2017-10-17T07:47:28.825Z,6.00
2017-10-17T07:49:57.143Z,6.65
2017-10-17T07:52:25.458Z,6.93
2017-10-17T07:54:53.029Z,5.82
2017-10-17T07:57:20.573Z,6.70
2017-10-17T07:59:48.132Z,5.12
2017-10-17T08:02:15.672Z,6.10
2017-10-17T08:04:43.221Z,6.45
2017-10-17T08:07:10.771Z,6.32
2017-10-17T08:09:38.361Z,6.15
2017-10-17T08:12:05.908Z,5.57
2017-10-17T08:14:33.481Z,5.97
2017-10-17T08:17:01.045Z,6.10
2017-10-17T08:19:28.568Z,6.28
2017-10-17T08:21:56.125Z,6.28
2017-10-17T08:24:23.664Z,5.57
2017-10-17T08:26:51.993Z,7.03
2017-10-17T08:29:19.524Z,5.60
2017-10-17T08:31:47.074Z,6.47
2017-10-17T08:34:15.383Z,5.85
2017-10-17T08:36:42.961Z,5.70
2017-10-17T08:39:10.546Z,4.90
2017-10-17T08:41:38.096Z,5.40
2017-10-17T08:44:05.635Z,6.25
2017-10-17T08:46:33.200Z,5.35
2017-10-17T08:49:00.765Z,5.18
2017-10-17T08:51:28.346Z,5.70
2017-10-17T08:53:55.912Z,5.05
2017-10-17T08:56:23.488Z,6.03
2017-10-17T08:58:51.085Z,4.72
2017-10-17T09:01:18.637Z,4.85
2017-10-17T09:03:46.183Z,4.60
2017-10-17T09:06:14.502Z,4.95
2017-10-17T09:08:42.069Z,4.72
2017-10-17T09:11:09.607Z,4.53
2017-10-17T09:13:37.177Z,4.18
2017-10-17T09:16:04.718Z,4.72
2017-10-17T09:18:32.305Z,5.47
2017-10-17T09:20:59.851Z,5.53
2017-10-17T09:23:27.413Z,4.87
2017-10-17T09:25:54.945Z,4.90
2017-10-17T09:28:23.238Z,4.25
2017-10-17T09:30:50.781Z,4.37
2017-10-17T09:33:19.098Z,5.12
2017-10-17T09:35:46.623Z,5.60
2017-10-17T09:38:14.918Z,4.62
2017-10-17T09:40:42.452Z,4.80
2017-10-17T09:43:10.744Z,4.97
2017-10-17T09:45:39.044Z,4.37
2017-10-17T09:48:20.533Z,3.80
2017-10-17T09:50:51.059Z,3.65
2017-10-17T09:53:24.731Z,4.53
2017-10-17T09:55:53.037Z,4.62
2017-10-17T09:58:20.601Z,4.50
2017-10-17T10:03:51.097Z,3.00
2017-10-17T10:06:18.651Z,3.53
2017-10-17T10:08:46.185Z,4.03
2017-10-17T10:11:13.749Z,3.35
2017-10-17T10:13:41.275Z,3.67
2017-10-17T10:16:09.564Z,3.20
2017-10-17T10:18:37.115Z,3.55
2017-10-17T10:21:05.412Z,3.35
2017-10-17T10:23:32.954Z,3.90
2017-10-17T10:26:01.237Z,3.40
2017-10-17T10:28:29.544Z,3.20
2017-10-17T10:30:57.056Z,3.45
2017-10-17T10:33:24.596Z,3.33
2017-10-17T10:35:52.157Z,3.25
2017-10-17T10:38:19.729Z,3.10
2017-10-17T10:40:47.258Z,2.90
2017-10-17T10:43:14.780Z,3.25
2017-10-17T10:45:42.325Z,3.60
2017-10-17T10:48:10.608Z,2.90
2017-10-17T10:50:38.914Z,3.42
2017-10-17T10:53:06.434Z,3.65
2017-10-17T10:55:33.980Z,3.10
2017-10-17T10:58:01.510Z,2.58
2017-10-17T11:00:29.062Z,2.83
2017-10-17T11:02:56.586Z,2.97
2017-10-17T11:05:24.893Z,3.60
2017-10-17T11:07:52.412Z,3.00
2017-10-17T11:10:19.944Z,2.85
2017-10-17T11:12:47.480Z,2.80
2017-10-17T11:15:15.026Z,2.80
2017-10-17T11:17:42.566Z,3.05
2017-10-17T11:20:10.850Z,3.00
2017-10-17T11:22:39.156Z,2.83
2017-10-17T11:25:07.588Z,2.80
2017-10-17T11:27:35.138Z,3.30
2017-10-17T11:30:02.657Z,3.25
2017-10-17T11:32:30.216Z,3.00
2017-10-17T11:34:57.741Z,3.20
2017-10-17T11:37:26.033Z,2.90
2017-10-17T11:39:53.560Z,2.85
2017-10-17T11:42:32.797Z,2.83
2017-10-17T11:45:00.337Z,3.33
2017-10-17T11:47:27.863Z,3.00
2017-10-17T11:49:55.407Z,3.28
2017-10-17T11:52:23.683Z,2.72
2017-10-17T11:54:51.997Z,3.25
2017-10-17T11:57:19.516Z,3.47
2017-10-17T11:59:47.828Z,2.85
2017-10-17T12:02:15.344Z,3.40
2017-10-17T12:04:42.906Z,3.05
2017-10-17T12:07:11.197Z,3.12
2017-10-17T12:09:39.498Z,3.60
2017-10-17T12:12:07.067Z,3.10
2017-10-17T12:14:34.600Z,3.30
2017-10-17T12:17:02.145Z,3.50
2017-10-17T12:19:30.433Z,3.15
2017-10-17T12:21:58.739Z,3.30
2017-10-17T12:24:26.255Z,3.80
2017-10-17T12:26:53.794Z,2.90
2017-10-17T12:29:21.325Z,2.95
2017-10-17T12:31:48.903Z,2.85
2017-10-17T12:34:16.434Z,3.15
2017-10-17T12:36:43.944Z,3.45
2017-10-17T12:39:11.476Z,3.00
2017-10-17T12:41:38.995Z,2.87
2017-10-17T12:44:07.301Z,2.87
2017-10-17T12:46:34.837Z,3.20
2017-10-17T12:49:02.370Z,3.10
2017-10-17T12:51:29.889Z,3.12
2017-10-17T12:53:57.438Z,4.00
2017-10-17T12:56:24.989Z,3.37
2017-10-17T12:58:52.552Z,3.35
2017-10-17T13:01:20.085Z,3.50
2017-10-17T13:03:48.373Z,3.65
2017-10-17T13:06:15.912Z,4.03
2017-10-17T13:08:43.433Z,5.22
2017-10-17T13:11:10.969Z,3.97
2017-10-17T13:13:38.497Z,4.43
2017-10-17T13:16:06.033Z,4.43
2017-10-17T13:18:33.555Z,4.45
2017-10-17T13:21:01.094Z,4.65
2017-10-17T13:23:29.384Z,4.32
2017-10-17T13:25:56.920Z,4.50
2017-10-17T13:28:25.215Z,4.50
2017-10-17T13:30:52.753Z,4.57
2017-10-17T13:33:21.063Z,4.32
2017-10-17T13:35:48.603Z,5.05
2017-10-17T13:38:16.917Z,4.60
2017-10-17T13:40:44.452Z,5.10
2017-10-17T13:43:12.007Z,5.20
2017-10-17T13:45:40.304Z,4.90
2017-10-17T13:48:07.852Z,4.95
2017-10-17T13:50:35.377Z,5.18
2017-10-17T13:53:02.918Z,5.10
2017-10-17T13:55:30.456Z,4.10
2017-10-17T13:57:57.983Z,3.62
2017-10-17T14:00:25.545Z,4.60
2017-10-17T14:02:53.070Z,4.87
2017-10-17T14:05:20.606Z,4.90
2017-10-17T14:07:48.167Z,4.47
2017-10-17T14:10:15.703Z,4.87
2017-10-17T14:12:43.556Z,4.90
2017-10-17T14:15:11.561Z,5.10
2017-10-17T14:17:39.072Z,4.87
2017-10-17T14:20:06.676Z,5.00
2017-10-17T14:22:34.208Z,4.87
2017-10-17T14:25:02.496Z,4.78
2017-10-17T14:27:30.038Z,4.85
2017-10-17T14:29:58.339Z,4.90
2017-10-17T14:32:25.880Z,4.60
2017-10-17T14:34:54.156Z,4.30
2017-10-17T14:37:22.460Z,5.03
2017-10-17T14:39:49.992Z,4.68
2017-10-17T14:42:18.300Z,4.43
2017-10-17T14:44:45.815Z,4.82
2017-10-17T14:47:13.347Z,4.20
2017-10-17T14:49:40.876Z,5.43
2017-10-17T14:52:08.392Z,4.87
2017-10-17T14:54:35.927Z,4.30
2017-10-17T14:57:04.478Z,3.80
2017-10-17T14:59:32.060Z,4.32
2017-10-17T15:01:59.582Z,4.12
2017-10-17T15:04:27.889Z,4.60
2017-10-17T15:06:55.416Z,4.10
2017-10-17T15:09:23.753Z,4.70
2017-10-17T15:11:51.272Z,4.50
2017-10-17T15:14:18.788Z,4.25
2017-10-17T15:16:46.334Z,4.18
2017-10-17T15:19:13.864Z,5.32
2017-10-17T15:21:41.441Z,4.55
2017-10-17T15:24:08.968Z,4.75
2017-10-17T15:26:37.269Z,3.58
2017-10-17T15:29:04.790Z,4.55
2017-10-17T15:31:32.351Z,4.60
2017-10-17T15:33:59.878Z,3.90
2017-10-17T15:36:27.418Z,5.05
2017-10-17T15:38:54.970Z,4.03
2017-10-17T15:41:22.524Z,4.12
2017-10-17T15:43:50.064Z,5.62
2017-10-17T15:46:18.415Z,5.85
2017-10-17T15:48:46.009Z,4.62
2017-10-17T15:51:14.305Z,4.62
2017-10-17T15:53:41.873Z,5.28
2017-10-17T15:56:09.448Z,5.40
2017-10-17T15:58:36.972Z,4.12
2017-10-17T16:01:05.345Z,5.93
2017-10-17T16:03:33.659Z,5.50
2017-10-17T16:06:01.226Z,5.65
2017-10-17T16:08:28.743Z,5.82
2017-10-17T16:10:56.278Z,6.05
2017-10-17T16:13:23.833Z,6.28
2017-10-17T16:15:51.363Z,5.82
2017-10-17T16:18:18.912Z,5.90
2017-10-17T16:20:46.430Z,5.85
2017-10-17T16:23:14.912Z,5.68
2017-10-17T16:25:42.432Z,5.12
2017-10-17T16:28:09.963Z,5.40
2017-10-17T16:30:37.508Z,4.90
2017-10-17T16:33:05.844Z,5.40
2017-10-17T16:35:33.389Z,5.32
2017-10-17T16:38:00.910Z,5.90
2017-10-17T16:40:29.229Z,4.95
2017-10-17T16:42:56.760Z,5.03
2017-10-17T16:45:24.300Z,6.28
2017-10-17T16:47:52.594Z,5.97
2017-10-17T16:50:20.129Z,6.37
2017-10-17T16:52:47.663Z,5.80
2017-10-17T16:55:15.186Z,6.70
2017-10-17T16:57:42.725Z,6.50
2017-10-17T17:00:11.014Z,5.85
2017-10-17T17:02:38.558Z,6.10
2017-10-17T17:05:06.143Z,5.93
2017-10-17T17:07:34.305Z,6.50
2017-10-17T17:10:02.593Z,7.07
2017-10-17T17:12:30.128Z,6.37
2017-10-17T17:14:57.677Z,6.85
2017-10-17T17:17:25.193Z,7.22
2017-10-17T17:19:52.732Z,8.57
2017-10-17T17:22:20.273Z,8.60
2017-10-17T17:24:48.589Z,9.80
2017-10-17T17:27:16.119Z,8.93
2017-10-17T17:29:43.652Z,9.45
2017-10-17T17:32:11.192Z,9.65
2017-10-17T17:34:38.738Z,10.20
2017-10-17T17:37:06.284Z,8.80
2017-10-17T17:39:33.840Z,9.38
2017-10-17T17:42:01.384Z,10.30
2017-10-17T17:44:29.672Z,8.63
2017-10-17T17:46:57.214Z,9.15
2017-10-17T17:49:25.506Z,8.23
2017-10-17T17:51:53.075Z,9.63
2017-10-17T17:54:20.602Z,7.60
2017-10-17T17:56:48.124Z,8.25
2017-10-17T17:59:15.713Z,8.20
2017-10-17T18:01:43.237Z,8.50
2017-10-17T18:04:11.537Z,9.30
2017-10-17T18:06:39.084Z,8.13
2017-10-17T18:09:06.671Z,8.40
2017-10-17T18:11:34.268Z,8.13
2017-10-17T18:14:02.566Z,8.35
2017-10-17T18:16:30.117Z,8.82
2017-10-17T18:18:57.690Z,7.75
2017-10-17T18:21:25.278Z,7.30
2017-10-17T18:23:52.818Z,8.00
2017-10-17T18:26:20.378Z,8.70
2017-10-17T18:28:47.933Z,9.27
2017-10-17T18:31:15.473Z,8.35
2017-10-17T18:33:43.001Z,7.93
2017-10-17T18:36:10.578Z,7.93
2017-10-17T18:38:38.108Z,8.77
2017-10-17T18:41:11.233Z,8.20
2017-10-17T18:43:38.764Z,8.10
2017-10-17T18:46:06.355Z,8.75
2017-10-17T18:48:33.882Z,8.20
2017-10-17T18:51:02.169Z,8.90
2017-10-17T18:53:30.484Z,8.75
2017-10-17T18:55:58.770Z,9.13
2017-10-17T18:58:26.333Z,10.30
2017-10-17T19:00:53.851Z,8.70
2017-10-17T19:03:21.399Z,9.00
2017-10-17T19:05:49.680Z,7.30
2017-10-17T19:08:18.001Z,7.85
2017-10-17T19:10:45.538Z,8.70
2017-10-17T19:13:13.109Z,8.23
2017-10-17T19:15:40.647Z,8.40
2017-10-17T19:18:08.175Z,8.10
2017-10-17T19:20:56.798Z,8.63
2017-10-17T19:23:24.332Z,7.18
2017-10-17T19:25:51.907Z,8.02
2017-10-17T19:28:19.431Z,9.75
2017-10-17T19:30:47.813Z,7.70
2017-10-17T19:33:15.347Z,8.45
2017-10-17T19:35:42.891Z,8.43
2017-10-17T19:38:10.429Z,8.52
2017-10-17T19:40:37.994Z,7.95
2017-10-17T19:43:05.519Z,8.00
2017-10-17T19:45:33.036Z,6.95
2017-10-17T19:48:00.576Z,7.20
2017-10-17T19:50:28.108Z,6.87
2017-10-17T19:52:55.658Z,7.20
2017-10-17T19:55:23.188Z,7.05
2017-10-17T19:57:50.730Z,6.97
2017-10-17T20:00:18.242Z,7.20
2017-10-17T20:02:45.800Z,7.60
2017-10-17T20:05:13.323Z,7.20
2017-10-17T20:07:40.842Z,8.55
2017-10-17T20:10:08.379Z,8.13
2017-10-17T20:12:35.908Z,7.32
2017-10-17T20:15:03.453Z,6.12
2017-10-17T20:17:30.997Z,6.70
2017-10-17T20:19:58.570Z,7.32
2017-10-17T20:22:26.113Z,7.30
2017-10-17T20:24:53.671Z,6.57
2017-10-17T20:27:21.212Z,6.57
2017-10-17T20:29:48.775Z,7.15
2017-10-17T20:32:16.388Z,6.70
2017-10-17T20:34:44.709Z,6.30
2017-10-17T20:37:12.252Z,6.30
2017-10-17T20:39:39.784Z,6.20
2017-10-17T20:42:08.110Z,6.55
2017-10-17T20:44:35.767Z,6.40
2017-10-17T20:47:03.321Z,6.20
2017-10-17T20:49:30.863Z,7.40
2017-10-17T20:51:58.487Z,6.57
2017-10-17T20:54:26.019Z,7.90
2017-10-17T20:56:53.545Z,6.05
2017-10-17T20:59:21.085Z,5.55
2017-10-17T21:01:48.614Z,6.60
2017-10-17T21:04:16.359Z,7.00
2017-10-17T21:06:43.982Z,6.80
2017-10-17T21:09:12.300Z,6.07
2017-10-17T21:11:40.588Z,6.60
2017-10-17T21:14:08.139Z,6.22
2017-10-17T21:16:35.693Z,6.90
2017-10-17T21:19:03.252Z,5.85
2017-10-17T21:21:30.780Z,6.60
2017-10-17T21:23:58.322Z,6.82
2017-10-17T21:26:25.880Z,6.50
2017-10-17T21:28:54.213Z,6.30
2017-10-17T21:31:21.787Z,6.57
2017-10-17T21:33:49.336Z,6.97
2017-10-17T21:36:16.894Z,5.68
2017-10-17T21:38:44.429Z,7.28
2017-10-17T21:41:12.006Z,6.53
2017-10-17T21:43:39.553Z,7.10
2017-10-17T21:46:07.082Z,7.18
2017-10-17T21:48:35.411Z,7.30
2017-10-17T21:51:02.945Z,6.55
2017-10-17T21:53:30.486Z,7.95
2017-10-17T21:55:58.788Z,8.90
2017-10-17T21:58:26.332Z,7.82
2017-10-17T22:01:01.695Z,8.20
2017-10-17T22:03:29.292Z,8.60
2017-10-17T22:05:56.864Z,8.68
2017-10-17T22:08:24.399Z,7.75
2017-10-17T22:10:51.957Z,7.75
2017-10-17T22:13:19.472Z,8.45
2017-10-17T22:15:47.785Z,8.75
2017-10-17T22:18:15.315Z,7.90
2017-10-17T22:20:42.865Z,7.65
2017-10-17T22:23:11.147Z,8.15
2017-10-17T22:25:39.473Z,7.65
2017-10-17T22:28:07.009Z,7.80
2017-10-17T22:30:34.542Z,7.00
2017-10-17T22:33:02.856Z,7.00
2017-10-17T22:35:30.409Z,6.47
2017-10-17T22:37:57.967Z,6.55
2017-10-17T22:40:25.499Z,6.85
2017-10-17T22:42:53.827Z,6.50
2017-10-17T22:45:21.525Z,6.45
2017-10-17T22:47:49.087Z,6.40
2017-10-17T22:50:17.391Z,6.40
2017-10-17T22:52:44.927Z,6.55
2017-10-17T22:55:13.253Z,6.68
2017-10-17T22:57:40.797Z,6.87
2017-10-17T23:00:08.343Z,6.80
2017-10-17T23:02:35.866Z,6.00
2017-10-17T23:05:19.987Z,6.80
2017-10-17T23:07:47.542Z,6.10
2017-10-17T23:10:15.103Z,6.78
2017-10-17T23:12:42.628Z,6.20
2017-10-17T23:15:10.940Z,5.00
2017-10-17T23:17:50.326Z,6.50
2017-10-17T23:20:30.394Z,5.20
2017-10-17T23:22:57.907Z,5.72
2017-10-17T23:25:25.473Z,6.20
2017-10-17T23:27:53.014Z,6.00
2017-10-17T23:30:20.562Z,7.35
2017-10-17T23:32:48.112Z,5.20
2017-10-17T23:35:15.636Z,5.72
2017-10-17T23:37:43.948Z,5.15
2017-10-17T23:40:11.468Z,5.70
2017-10-17T23:42:39.775Z,5.90
2017-10-17T23:45:07.300Z,4.97
2017-10-17T23:47:34.863Z,5.03
2017-10-17T23:50:02.401Z,5.50
2017-10-17T23:52:29.963Z,5.97
2017-10-17T23:54:57.530Z,5.47
2017-10-17T23:57:25.057Z,5.70
2017-10-17T23:59:53.381Z,5.85
